sensor_id;sensor_type;location;lat;lon;timestamp;pressure;altitude;pressure_sealevel;temperature;humidity
63493;BME280;49638;47.526;10.028;2023-03-19T00:00:53;91390.22;;;8.15;67.93
63493;BME280;49638;47.526;10.028;2023-03-19T00:03:53;91390.31;;;8.20;67.75
63493;BME280;49638;47.526;10.028;2023-03-19T00:06:54;91392.94;;;8.20;67.58
63493;BME280;49638;47.526;10.028;2023-03-19T00:09:54;91389.53;;;8.19;67.89
63493;BME280;49638;47.526;10.028;2023-03-19T00:12:54;91397.50;;;8.24;67.78
63493;BME280;49638;47.526;10.028;2023-03-19T00:15:54;91403.56;;;8.25;67.97
63493;BME280;49638;47.526;10.028;2023-03-19T00:18:55;91401.41;;;8.22;67.93
63493;BME280;49638;47.526;10.028;2023-03-19T00:21:56;91397.66;;;8.18;67.82
63493;BME280;49638;47.526;10.028;2023-03-19T00:24:57;91400.84;;;8.20;68.15
63493;BME280;49638;47.526;10.028;2023-03-19T00:27:58;91395.16;;;8.11;68.31
63493;BME280;49638;47.526;10.028;2023-03-19T00:31:09;91400.75;;;8.15;69.03
63493;BME280;49638;47.526;10.028;2023-03-19T00:34:10;91379.50;;;8.04;68.09
63493;BME280;49638;47.526;10.028;2023-03-19T00:37:12;91397.78;;;8.11;68.11
63493;BME280;49638;47.526;10.028;2023-03-19T00:40:12;91402.25;;;8.11;68.53
63493;BME280;49638;47.526;10.028;2023-03-19T00:43:13;91406.47;;;8.12;68.76
63493;BME280;49638;47.526;10.028;2023-03-19T00:46:13;91403.44;;;8.03;68.71
63493;BME280;49638;47.526;10.028;2023-03-19T00:49:13;91415.41;;;8.11;68.82
63493;BME280;49638;47.526;10.028;2023-03-19T00:52:14;91417.97;;;8.05;68.88
63493;BME280;49638;47.526;10.028;2023-03-19T00:55:14;91424.50;;;8.03;69.31
63493;BME280;49638;47.526;10.028;2023-03-19T00:58:14;91413.78;;;7.93;69.29
63493;BME280;49638;47.526;10.028;2023-03-19T01:01:16;91425.47;;;7.85;69.61
63493;BME280;49638;47.526;10.028;2023-03-19T01:04:17;91407.19;;;7.78;69.72
63493;BME280;49638;47.526;10.028;2023-03-19T01:07:18;91416.91;;;7.78;69.88
63493;BME280;49638;47.526;10.028;2023-03-19T01:10:20;91423.78;;;7.79;69.94
63493;BME280;49638;47.526;10.028;2023-03-19T01:13:21;91418.97;;;7.76;69.82
63493;BME280;49638;47.526;10.028;2023-03-19T01:16:21;91421.00;;;7.86;69.95
63493;BME280;49638;47.526;10.028;2023-03-19T01:19:22;91414.38;;;7.83;69.87
63493;BME280;49638;47.526;10.028;2023-03-19T01:22:22;91410.50;;;7.74;69.83
63493;BME280;49638;47.526;10.028;2023-03-19T01:25:23;91417.38;;;7.75;69.81
63493;BME280;49638;47.526;10.028;2023-03-19T01:28:23;91431.19;;;7.82;69.95
63493;BME280;49638;47.526;10.028;2023-03-19T01:31:23;91422.72;;;7.80;69.94
63493;BME280;49638;47.526;10.028;2023-03-19T01:34:24;91418.72;;;7.77;69.58
63493;BME280;49638;47.526;10.028;2023-03-19T01:37:24;91427.44;;;7.78;69.64
63493;BME280;49638;47.526;10.028;2023-03-19T01:40:24;91428.25;;;7.78;69.49
63493;BME280;49638;47.526;10.028;2023-03-19T01:43:29;91435.75;;;7.87;69.54
63493;BME280;49638;47.526;10.028;2023-03-19T01:46:35;91436.53;;;7.87;69.64
63493;BME280;49638;47.526;10.028;2023-03-19T01:49:39;91430.72;;;7.85;69.04
63493;BME280;49638;47.526;10.028;2023-03-19T01:52:40;91428.56;;;7.82;68.95
63493;BME280;49638;47.526;10.028;2023-03-19T01:55:40;91452.34;;;7.87;69.38
63493;BME280;49638;47.526;10.028;2023-03-19T01:58:43;91443.69;;;7.75;69.71
63493;BME280;49638;47.526;10.028;2023-03-19T02:01:57;91435.22;;;7.73;70.91
63493;BME280;49638;47.526;10.028;2023-03-19T02:05:06;91432.84;;;7.71;69.66
63493;BME280;49638;47.526;10.028;2023-03-19T02:08:10;91454.75;;;7.89;68.93
63493;BME280;49638;47.526;10.028;2023-03-19T02:11:11;91450.75;;;7.86;69.09
63493;BME280;49638;47.526;10.028;2023-03-19T02:14:12;91438.72;;;7.90;68.64
63493;BME280;49638;47.526;10.028;2023-03-19T02:17:12;91443.75;;;7.92;68.82
63493;BME280;49638;47.526;10.028;2023-03-19T02:23:29;91460.44;;;7.97;69.24
63493;BME280;49638;47.526;10.028;2023-03-19T02:26:31;91456.66;;;7.93;68.99
63493;BME280;49638;47.526;10.028;2023-03-19T02:29:31;91458.97;;;7.90;68.97
63493;BME280;49638;47.526;10.028;2023-03-19T02:32:32;91461.13;;;7.93;69.10
63493;BME280;49638;47.526;10.028;2023-03-19T02:35:33;91471.41;;;7.94;69.06
63493;BME280;49638;47.526;10.028;2023-03-19T02:38:35;91469.03;;;7.93;68.84
63493;BME280;49638;47.526;10.028;2023-03-19T02:41:39;91479.22;;;7.89;68.94
63493;BME280;49638;47.526;10.028;2023-03-19T02:44:40;91472.13;;;7.90;68.63
63493;BME280;49638;47.526;10.028;2023-03-19T02:47:40;91479.44;;;7.88;68.94
63493;BME280;49638;47.526;10.028;2023-03-19T02:50:41;91488.72;;;7.90;68.79
63493;BME280;49638;47.526;10.028;2023-03-19T02:53:41;91491.03;;;7.75;69.15
63493;BME280;49638;47.526;10.028;2023-03-19T02:56:41;91487.81;;;7.73;68.81
63493;BME280;49638;47.526;10.028;2023-03-19T02:59:42;91477.31;;;7.73;68.65
63493;BME280;49638;47.526;10.028;2023-03-19T03:02:42;91496.97;;;7.82;68.42
63493;BME280;49638;47.526;10.028;2023-03-19T03:05:42;91491.59;;;7.77;68.93
63493;BME280;49638;47.526;10.028;2023-03-19T03:08:43;91496.63;;;7.78;68.79
63493;BME280;49638;47.526;10.028;2023-03-19T03:11:43;91494.22;;;7.77;68.88
63493;BME280;49638;47.526;10.028;2023-03-19T03:14:43;91502.22;;;7.82;68.49
63493;BME280;49638;47.526;10.028;2023-03-19T03:17:45;91509.34;;;7.81;68.31
63493;BME280;49638;47.526;10.028;2023-03-19T03:20:45;91503.72;;;7.78;68.51
63493;BME280;49638;47.526;10.028;2023-03-19T03:23:47;91515.25;;;7.89;68.04
63493;BME280;49638;47.526;10.028;2023-03-19T03:26:47;91511.00;;;7.88;67.66
63493;BME280;49638;47.526;10.028;2023-03-19T03:29:47;91527.00;;;7.98;67.70
63493;BME280;49638;47.526;10.028;2023-03-19T03:32:48;91526.78;;;7.99;67.80
63493;BME280;49638;47.526;10.028;2023-03-19T03:35:48;91528.97;;;8.02;67.86
63493;BME280;49638;47.526;10.028;2023-03-19T03:38:48;91518.00;;;7.94;67.87
63493;BME280;49638;47.526;10.028;2023-03-19T03:41:49;91527.84;;;7.98;67.96
63493;BME280;49638;47.526;10.028;2023-03-19T03:44:49;91502.56;;;7.86;67.56
63493;BME280;49638;47.526;10.028;2023-03-19T03:47:49;91522.44;;;7.93;67.91
63493;BME280;49638;47.526;10.028;2023-03-19T03:50:50;91528.63;;;7.99;67.59
63493;BME280;49638;47.526;10.028;2023-03-19T03:53:50;91527.13;;;7.91;67.50
63493;BME280;49638;47.526;10.028;2023-03-19T03:56:51;91528.97;;;8.02;67.16
63493;BME280;49638;47.526;10.028;2023-03-19T03:59:51;91542.88;;;8.15;67.18
63493;BME280;49638;47.526;10.028;2023-03-19T04:02:51;91514.88;;;8.09;66.40
63493;BME280;49638;47.526;10.028;2023-03-19T04:05:52;91531.22;;;8.11;66.95
63493;BME280;49638;47.526;10.028;2023-03-19T04:08:52;91538.31;;;8.10;67.08
63493;BME280;49638;47.526;10.028;2023-03-19T04:11:52;91531.94;;;8.06;67.31
63493;BME280;49638;47.526;10.028;2023-03-19T04:14:53;91530.47;;;7.98;67.36
63493;BME280;49638;47.526;10.028;2023-03-19T04:17:53;91539.94;;;7.99;67.59
63493;BME280;49638;47.526;10.028;2023-03-19T04:20:53;91508.41;;;7.76;67.76
63493;BME280;49638;47.526;10.028;2023-03-19T04:23:53;91535.97;;;7.85;67.46
63493;BME280;49638;47.526;10.028;2023-03-19T04:26:54;91525.31;;;7.80;67.59
63493;BME280;49638;47.526;10.028;2023-03-19T04:29:54;91535.63;;;7.81;67.76
63493;BME280;49638;47.526;10.028;2023-03-19T04:32:54;91525.00;;;7.76;67.50
63493;BME280;49638;47.526;10.028;2023-03-19T04:35:55;91534.72;;;7.76;67.58
63493;BME280;49638;47.526;10.028;2023-03-19T04:38:56;91545.91;;;7.83;67.97
63493;BME280;49638;47.526;10.028;2023-03-19T04:41:56;91516.66;;;7.68;68.06
63493;BME280;49638;47.526;10.028;2023-03-19T04:44:56;91543.88;;;7.85;67.41
63493;BME280;49638;47.526;10.028;2023-03-19T04:47:57;91535.06;;;7.79;67.04
63493;BME280;49638;47.526;10.028;2023-03-19T04:50:57;91529.78;;;7.79;67.14
63493;BME280;49638;47.526;10.028;2023-03-19T04:53:57;91543.06;;;7.85;67.31
63493;BME280;49638;47.526;10.028;2023-03-19T04:56:57;91555.06;;;7.92;67.17
63493;BME280;49638;47.526;10.028;2023-03-19T04:59:58;91553.44;;;7.91;67.25
63493;BME280;49638;47.526;10.028;2023-03-19T05:02:59;91550.81;;;7.91;67.40
63493;BME280;49638;47.526;10.028;2023-03-19T05:05:59;91551.63;;;7.92;67.71
63493;BME280;49638;47.526;10.028;2023-03-19T05:09:00;91547.50;;;7.84;67.43
63493;BME280;49638;47.526;10.028;2023-03-19T05:12:00;91551.28;;;7.76;67.41
63493;BME280;49638;47.526;10.028;2023-03-19T05:15:01;91558.16;;;7.77;67.76
63493;BME280;49638;47.526;10.028;2023-03-19T05:18:01;91572.00;;;7.73;68.31
63493;BME280;49638;47.526;10.028;2023-03-19T05:21:02;91572.00;;;7.73;68.25
63493;BME280;49638;47.526;10.028;2023-03-19T05:24:03;91569.50;;;7.78;67.75
63493;BME280;49638;47.526;10.028;2023-03-19T05:27:04;91575.09;;;7.81;67.74
63493;BME280;49638;47.526;10.028;2023-03-19T05:30:05;91579.09;;;7.84;67.69
63493;BME280;49638;47.526;10.028;2023-03-19T05:33:06;91567.88;;;7.77;67.68
63493;BME280;49638;47.526;10.028;2023-03-19T05:36:06;91580.69;;;7.85;67.76
63493;BME280;49638;47.526;10.028;2023-03-19T05:39:07;91578.88;;;7.86;67.62
63493;BME280;49638;47.526;10.028;2023-03-19T05:42:07;91585.97;;;7.85;67.36
63493;BME280;49638;47.526;10.028;2023-03-19T05:45:08;91573.47;;;7.80;67.71
63493;BME280;49638;47.526;10.028;2023-03-19T05:48:08;91584.81;;;7.81;67.47
63493;BME280;49638;47.526;10.028;2023-03-19T05:51:08;91594.53;;;7.80;67.54
63493;BME280;49638;47.526;10.028;2023-03-19T05:54:09;91587.69;;;7.79;67.51
63493;BME280;49638;47.526;10.028;2023-03-19T05:57:09;91603.00;;;7.82;67.90
63493;BME280;49638;47.526;10.028;2023-03-19T06:00:10;91600.13;;;7.84;68.02
63493;BME280;49638;47.526;10.028;2023-03-19T06:03:11;91601.16;;;7.83;67.69
63493;BME280;49638;47.526;10.028;2023-03-19T06:06:11;91608.03;;;7.84;68.31
63493;BME280;49638;47.526;10.028;2023-03-19T06:09:11;91597.06;;;7.75;68.20
63493;BME280;49638;47.526;10.028;2023-03-19T06:12:12;91604.25;;;7.80;68.40
63493;BME280;49638;47.526;10.028;2023-03-19T06:15:12;91606.44;;;7.71;68.45
63493;BME280;49638;47.526;10.028;2023-03-19T06:18:12;91613.19;;;7.79;68.28
63493;BME280;49638;47.526;10.028;2023-03-19T06:21:12;91606.19;;;7.73;68.69
63493;BME280;49638;47.526;10.028;2023-03-19T06:24:13;91626.69;;;7.82;68.78
63493;BME280;49638;47.526;10.028;2023-03-19T06:27:13;91625.88;;;7.82;69.09
63493;BME280;49638;47.526;10.028;2023-03-19T06:30:13;91620.03;;;7.80;69.02
63493;BME280;49638;47.526;10.028;2023-03-19T06:33:14;91616.38;;;7.81;68.94
63493;BME280;49638;47.526;10.028;2023-03-19T06:36:15;91630.69;;;7.85;68.85
63493;BME280;49638;47.526;10.028;2023-03-19T06:39:15;91621.75;;;7.86;69.26
63493;BME280;49638;47.526;10.028;2023-03-19T06:42:16;91626.66;;;7.94;68.67
63493;BME280;49638;47.526;10.028;2023-03-19T06:45:16;91622.78;;;7.97;69.28
63493;BME280;49638;47.526;10.028;2023-03-19T06:48:18;91636.28;;;8.00;68.89
63493;BME280;49638;47.526;10.028;2023-03-19T06:51:18;91648.63;;;8.12;68.89
63493;BME280;49638;47.526;10.028;2023-03-19T06:54:18;91639.63;;;8.19;68.62
63493;BME280;49638;47.526;10.028;2023-03-19T06:57:19;91631.81;;;8.24;68.28
63493;BME280;49638;47.526;10.028;2023-03-19T07:00:20;91634.00;;;8.39;67.75
63493;BME280;49638;47.526;10.028;2023-03-19T07:03:20;91632.25;;;8.45;67.64
63493;BME280;49638;47.526;10.028;2023-03-19T07:06:20;91643.47;;;8.52;67.70
63493;BME280;49638;47.526;10.028;2023-03-19T07:09:20;91633.66;;;8.47;67.79
63493;BME280;49638;47.526;10.028;2023-03-19T07:12:21;91626.78;;;8.46;67.50
63493;BME280;49638;47.526;10.028;2023-03-19T07:15:21;91634.56;;;8.53;67.45
63493;BME280;49638;47.526;10.028;2023-03-19T07:18:22;91644.38;;;8.58;67.06
63493;BME280;49638;47.526;10.028;2023-03-19T07:21:22;91640.03;;;8.51;67.02
63493;BME280;49638;47.526;10.028;2023-03-19T07:24:22;91655.84;;;8.63;66.77
63493;BME280;49638;47.526;10.028;2023-03-19T07:27:23;91640.25;;;8.62;66.51
63493;BME280;49638;47.526;10.028;2023-03-19T07:30:23;91649.97;;;8.73;66.11
63493;BME280;49638;47.526;10.028;2023-03-19T07:33:23;91638.94;;;8.76;66.27
63493;BME280;49638;47.526;10.028;2023-03-19T07:36:23;91637.22;;;8.82;65.87
63493;BME280;49638;47.526;10.028;2023-03-19T07:39:24;91653.56;;;8.95;65.29
63493;BME280;49638;47.526;10.028;2023-03-19T07:42:24;91655.00;;;9.03;65.25
63493;BME280;49638;47.526;10.028;2023-03-19T07:45:24;91645.97;;;9.11;65.02
63493;BME280;49638;47.526;10.028;2023-03-19T07:48:25;91658.94;;;9.29;64.74
63493;BME280;49638;47.526;10.028;2023-03-19T07:51:25;91651.69;;;9.36;64.59
63493;BME280;49638;47.526;10.028;2023-03-19T07:54:26;91658.03;;;9.52;63.86
63493;BME280;49638;47.526;10.028;2023-03-19T07:57:26;91647.31;;;9.59;63.49
63493;BME280;49638;47.526;10.028;2023-03-19T08:00:26;91656.44;;;9.68;63.38
63493;BME280;49638;47.526;10.028;2023-03-19T08:03:27;91658.38;;;9.73;63.38
63493;BME280;49638;47.526;10.028;2023-03-19T08:06:28;91656.19;;;9.69;63.42
63493;BME280;49638;47.526;10.028;2023-03-19T08:09:28;91654.13;;;9.71;63.30
63493;BME280;49638;47.526;10.028;2023-03-19T08:12:29;91663.16;;;9.76;63.17
63493;BME280;49638;47.526;10.028;2023-03-19T08:15:31;91665.34;;;9.79;63.01
63493;BME280;49638;47.526;10.028;2023-03-19T08:18:31;91659.63;;;9.70;63.23
63493;BME280;49638;47.526;10.028;2023-03-19T08:21:32;91666.50;;;9.71;63.20
63493;BME280;49638;47.526;10.028;2023-03-19T08:24:33;91673.09;;;9.85;63.11
63493;BME280;49638;47.526;10.028;2023-03-19T08:27:33;91664.19;;;9.91;62.90
63493;BME280;49638;47.526;10.028;2023-03-19T08:30:37;91670.53;;;10.07;62.57
63493;BME280;49638;47.526;10.028;2023-03-19T08:33:38;91665.19;;;10.19;62.08
63493;BME280;49638;47.526;10.028;2023-03-19T08:36:39;91664.66;;;10.22;61.82
63493;BME280;49638;47.526;10.028;2023-03-19T08:39:39;91671.66;;;10.28;62.05
63493;BME280;49638;47.526;10.028;2023-03-19T08:42:39;91670.88;;;10.28;61.82
63493;BME280;49638;47.526;10.028;2023-03-19T08:45:41;91664.13;;;10.20;61.75
63493;BME280;49638;47.526;10.028;2023-03-19T08:48:43;91661.97;;;10.17;61.68
63493;BME280;49638;47.526;10.028;2023-03-19T08:51:43;91664.78;;;10.27;61.58
63493;BME280;49638;47.526;10.028;2023-03-19T08:54:43;91661.41;;;10.32;61.46
63493;BME280;49638;47.526;10.028;2023-03-19T08:57:44;91656.25;;;10.42;61.46
63493;BME280;49638;47.526;10.028;2023-03-19T09:00:44;91660.09;;;10.51;61.20
63493;BME280;49638;47.526;10.028;2023-03-19T09:03:45;91668.16;;;10.61;61.13
63493;BME280;49638;47.526;10.028;2023-03-19T09:06:45;91652.56;;;10.60;60.75
63493;BME280;49638;47.526;10.028;2023-03-19T09:09:45;91665.84;;;10.65;60.86
63493;BME280;49638;47.526;10.028;2023-03-19T09:12:46;91669.84;;;10.68;60.56
63493;BME280;49638;47.526;10.028;2023-03-19T09:15:46;91671.19;;;10.70;60.14
63493;BME280;49638;47.526;10.028;2023-03-19T09:18:46;91660.94;;;10.74;60.20
63493;BME280;49638;47.526;10.028;2023-03-19T09:21:47;91666.22;;;10.74;60.25
63493;BME280;49638;47.526;10.028;2023-03-19T09:24:47;91667.19;;;10.89;59.92
63493;BME280;49638;47.526;10.028;2023-03-19T09:27:47;91655.06;;;10.94;59.64
63493;BME280;49638;47.526;10.028;2023-03-19T09:30:49;91661.31;;;11.04;59.81
63493;BME280;49638;47.526;10.028;2023-03-19T09:33:49;91656.38;;;11.13;59.57
63493;BME280;49638;47.526;10.028;2023-03-19T09:36:49;91647.25;;;11.04;59.35
63493;BME280;49638;47.526;10.028;2023-03-19T09:39:50;91658.59;;;10.99;59.80
63493;BME280;49638;47.526;10.028;2023-03-19T09:45:57;91642.69;;;10.94;59.71
63493;BME280;49638;47.526;10.028;2023-03-19T09:55:44;91650.84;;;10.93;59.54
63493;BME280;49638;47.526;10.028;2023-03-19T09:58:46;91654.28;;;10.93;59.99
63493;BME280;49638;47.526;10.028;2023-03-19T10:01:52;91642.69;;;10.94;57.99
63493;BME280;49638;47.526;10.028;2023-03-19T10:18:20;91635.56;;;11.22;54.40
63493;BME280;49638;47.526;10.028;2023-03-19T10:24:36;91632.53;;;11.35;57.29
63493;BME280;49638;47.526;10.028;2023-03-19T10:27:37;91631.22;;;11.37;58.01
63493;BME280;49638;47.526;10.028;2023-03-19T10:30:38;91630.03;;;11.50;58.08
63493;BME280;49638;47.526;10.028;2023-03-19T10:33:49;91635.38;;;11.55;56.83
63493;BME280;49638;47.526;10.028;2023-03-19T10:36:58;91627.75;;;11.59;56.32
63493;BME280;49638;47.526;10.028;2023-03-19T10:39:59;91633.13;;;11.69;57.32
63493;BME280;49638;47.526;10.028;2023-03-19T10:43:33;91634.00;;;11.80;57.22
63493;BME280;49638;47.526;10.028;2023-03-19T10:46:26;91622.34;;;11.81;56.97
63493;BME280;49638;47.526;10.028;2023-03-19T10:49:27;91622.19;;;11.88;56.76
63493;BME280;49638;47.526;10.028;2023-03-19T10:52:29;91616.09;;;11.87;56.30
63493;BME280;49638;47.526;10.028;2023-03-19T10:55:32;91612.22;;;12.00;56.21
63493;BME280;49638;47.526;10.028;2023-03-19T10:58:35;91623.47;;;12.17;56.05
63493;BME280;49638;47.526;10.028;2023-03-19T11:01:40;91609.72;;;12.25;55.70
63493;BME280;49638;47.526;10.028;2023-03-19T11:04:40;91609.28;;;12.34;56.02
63493;BME280;49638;47.526;10.028;2023-03-19T11:07:41;91607.69;;;12.38;55.90
63493;BME280;49638;47.526;10.028;2023-03-19T11:10:46;91606.69;;;12.44;54.54
63493;BME280;49638;47.526;10.028;2023-03-19T11:13:48;91603.75;;;12.45;55.12
63493;BME280;49638;47.526;10.028;2023-03-19T11:17:03;91601.09;;;12.45;52.77
63493;BME280;49638;47.526;10.028;2023-03-19T11:20:20;91599.75;;;12.38;52.88
63493;BME280;49638;47.526;10.028;2023-03-19T11:23:21;91589.88;;;12.28;55.31
63493;BME280;49638;47.526;10.028;2023-03-19T11:26:21;91584.22;;;12.14;55.37
63493;BME280;49638;47.526;10.028;2023-03-19T11:29:25;91587.72;;;12.20;55.21
63493;BME280;49638;47.526;10.028;2023-03-19T11:33:09;91579.50;;;12.16;50.92
63493;BME280;49638;47.526;10.028;2023-03-19T11:36:23;91582.72;;;12.23;53.44
63493;BME280;49638;47.526;10.028;2023-03-19T11:39:28;91589.66;;;12.40;54.96
63493;BME280;49638;47.526;10.028;2023-03-19T11:49:20;91560.88;;;12.59;54.66
63493;BME280;49638;47.526;10.028;2023-03-19T11:56:01;91538.66;;;12.65;53.59
63493;BME280;49638;47.526;10.028;2023-03-19T11:59:37;91544.72;;;12.60;50.54
63493;BME280;49638;47.526;10.028;2023-03-19T12:15:27;91547.22;;;12.97;53.40
63493;BME280;49638;47.526;10.028;2023-03-19T12:28:38;91528.38;;;12.94;53.25
63493;BME280;49638;47.526;10.028;2023-03-19T12:31:56;91536.91;;;13.01;51.54
63493;BME280;49638;47.526;10.028;2023-03-19T12:35:13;91531.56;;;12.96;52.78
63493;BME280;49638;47.526;10.028;2023-03-19T12:38:38;91535.56;;;13.03;51.75
63493;BME280;49638;47.526;10.028;2023-03-19T12:41:41;91519.66;;;13.09;53.70
63493;BME280;49638;47.526;10.028;2023-03-19T12:44:47;91526.03;;;13.08;53.34
63493;BME280;49638;47.526;10.028;2023-03-19T12:47:54;91530.31;;;13.19;53.46
63493;BME280;49638;47.526;10.028;2023-03-19T12:51:02;91529.25;;;13.15;52.58
63493;BME280;49638;47.526;10.028;2023-03-19T12:54:08;91527.13;;;13.22;53.37
63493;BME280;49638;47.526;10.028;2023-03-19T12:57:33;91522.13;;;13.25;49.75
63493;BME280;49638;47.526;10.028;2023-03-19T13:03:57;91521.59;;;13.29;51.89
63493;BME280;49638;47.526;10.028;2023-03-19T13:07:10;91513.88;;;13.27;50.15
63493;BME280;49638;47.526;10.028;2023-03-19T13:10:20;91516.00;;;13.30;51.53
63493;BME280;49638;47.526;10.028;2023-03-19T13:19:46;91507.78;;;13.27;52.48
63493;BME280;49638;47.526;10.028;2023-03-19T13:23:01;91505.63;;;13.23;50.33
63493;BME280;49638;47.526;10.028;2023-03-19T13:26:06;91510.72;;;13.25;52.51
63493;BME280;49638;47.526;10.028;2023-03-19T13:29:17;91513.59;;;13.23;50.97
63493;BME280;49638;47.526;10.028;2023-03-19T13:32:33;91509.34;;;13.22;50.43
63493;BME280;49638;47.526;10.028;2023-03-19T13:35:41;91516.22;;;13.23;52.12
63493;BME280;49638;47.526;10.028;2023-03-19T13:38:46;91518.09;;;13.23;52.34
63493;BME280;49638;47.526;10.028;2023-03-19T13:41:56;91520.19;;;13.21;51.92
63493;BME280;49638;47.526;10.028;2023-03-19T13:45:33;91523.16;;;13.24;51.09
63493;BME280;49638;47.526;10.028;2023-03-19T13:48:36;91525.81;;;13.24;53.14
63493;BME280;49638;47.526;10.028;2023-03-19T13:51:38;91518.66;;;13.25;52.80
63493;BME280;49638;47.526;10.028;2023-03-19T13:54:39;91517.31;;;13.22;52.69
63493;BME280;49638;47.526;10.028;2023-03-19T13:57:40;91510.94;;;13.18;52.68
63493;BME280;49638;47.526;10.028;2023-03-19T14:03:52;91516.75;;;13.10;50.70
63493;BME280;49638;47.526;10.028;2023-03-19T14:07:18;91497.63;;;13.03;50.75
63493;BME280;49638;47.526;10.028;2023-03-19T14:10:24;91505.59;;;13.13;52.19
63493;BME280;49638;47.526;10.028;2023-03-19T14:13:29;91491.25;;;13.04;51.83
63493;BME280;49638;47.526;10.028;2023-03-19T14:16:36;91508.25;;;13.13;52.33
63493;BME280;49638;47.526;10.028;2023-03-19T14:19:41;91503.47;;;13.10;52.85
63493;BME280;49638;47.526;10.028;2023-03-19T14:26:24;91500.81;;;13.00;53.01
63493;BME280;49638;47.526;10.028;2023-03-19T14:29:28;91499.47;;;12.97;53.44
63493;BME280;49638;47.526;10.028;2023-03-19T14:32:35;91492.31;;;12.93;52.33
63493;BME280;49638;47.526;10.028;2023-03-19T14:35:41;91494.47;;;13.01;53.04
63493;BME280;49638;47.526;10.028;2023-03-19T14:38:53;91496.03;;;12.97;53.08
63493;BME280;49638;47.526;10.028;2023-03-19T14:49:28;91493.38;;;12.97;51.78
63493;BME280;49638;47.526;10.028;2023-03-19T14:53:16;91500.81;;;12.95;51.98
63493;BME280;49638;47.526;10.028;2023-03-19T14:56:23;91500.53;;;12.96;52.81
63493;BME280;49638;47.526;10.028;2023-03-19T14:59:24;91501.06;;;12.93;53.71
63493;BME280;49638;47.526;10.028;2023-03-19T15:05:36;91499.69;;;12.70;54.31
63493;BME280;49638;47.526;10.028;2023-03-19T15:08:37;91499.34;;;12.57;54.60
63493;BME280;49638;47.526;10.028;2023-03-19T15:18:43;91510.97;;;12.40;54.38
63493;BME280;49638;47.526;10.028;2023-03-19T15:21:47;91509.03;;;12.25;55.08
63493;BME280;49638;47.526;10.028;2023-03-19T15:24:48;91509.28;;;12.19;55.11
63493;BME280;49638;47.526;10.028;2023-03-19T15:28:11;91525.91;;;12.09;54.41
63493;BME280;49638;47.526;10.028;2023-03-19T15:31:13;91529.56;;;11.98;55.41
63493;BME280;49638;47.526;10.028;2023-03-19T15:34:24;91528.97;;;11.86;55.91
63493;BME280;49638;47.526;10.028;2023-03-19T15:37:26;91523.25;;;11.67;55.98
63493;BME280;49638;47.526;10.028;2023-03-19T15:40:30;91531.91;;;11.57;56.27
63493;BME280;49638;47.526;10.028;2023-03-19T15:43:32;91517.44;;;11.37;56.29
63493;BME280;49638;47.526;10.028;2023-03-19T15:46:35;91521.13;;;11.31;56.53
63493;BME280;49638;47.526;10.028;2023-03-19T15:49:55;91529.00;;;11.26;57.29
63493;BME280;49638;47.526;10.028;2023-03-19T15:53:00;91541.69;;;11.24;56.94
63493;BME280;49638;47.526;10.028;2023-03-19T15:56:03;91536.25;;;11.09;56.99
63493;BME280;49638;47.526;10.028;2023-03-19T15:59:03;91535.97;;;11.05;57.21
63493;BME280;49638;47.526;10.028;2023-03-19T16:02:17;91556.06;;;11.06;58.19
63493;BME280;49638;47.526;10.028;2023-03-19T16:05:23;91555.22;;;11.01;58.85
63493;BME280;49638;47.526;10.028;2023-03-19T16:08:25;91559.19;;;11.03;58.21
63493;BME280;49638;47.526;10.028;2023-03-19T16:11:28;91557.50;;;10.92;58.84
63493;BME280;49638;47.526;10.028;2023-03-19T16:17:33;91555.53;;;10.82;60.56
63493;BME280;49638;47.526;10.028;2023-03-19T16:20:40;91562.13;;;10.80;60.43
63493;BME280;49638;47.526;10.028;2023-03-19T16:23:44;91557.03;;;10.73;59.79
63493;BME280;49638;47.526;10.028;2023-03-19T16:26:45;91568.66;;;10.72;61.77
63493;BME280;49638;47.526;10.028;2023-03-19T16:29:57;91569.22;;;10.74;62.24
63493;BME280;49638;47.526;10.028;2023-03-19T16:33:00;91561.66;;;10.61;60.32
63493;BME280;49638;47.526;10.028;2023-03-19T16:36:01;91575.38;;;10.58;60.43
63493;BME280;49638;47.526;10.028;2023-03-19T16:39:20;91591.22;;;10.58;61.69
63493;BME280;49638;47.526;10.028;2023-03-19T16:42:28;91598.03;;;10.54;61.18
63493;BME280;49638;47.526;10.028;2023-03-19T16:45:31;91608.00;;;10.47;61.24
63493;BME280;49638;47.526;10.028;2023-03-19T16:48:31;91599.31;;;10.29;60.98
63493;BME280;49638;47.526;10.028;2023-03-19T16:51:32;91602.28;;;10.16;61.12
63493;BME280;49638;47.526;10.028;2023-03-19T16:54:33;91605.63;;;10.11;61.49
63493;BME280;49638;47.526;10.028;2023-03-19T16:57:33;91612.78;;;9.94;61.55
63493;BME280;49638;47.526;10.028;2023-03-19T17:00:33;91620.16;;;9.92;61.65
63493;BME280;49638;47.526;10.028;2023-03-19T17:03:34;91626.06;;;9.82;61.76
63493;BME280;49638;47.526;10.028;2023-03-19T17:06:34;91625.91;;;9.72;62.00
63493;BME280;49638;47.526;10.028;2023-03-19T17:09:35;91643.97;;;9.63;62.42
63493;BME280;49638;47.526;10.028;2023-03-19T17:12:35;91632.44;;;9.53;62.58
63493;BME280;49638;47.526;10.028;2023-03-19T17:15:39;91633.06;;;9.43;63.64
63493;BME280;49638;47.526;10.028;2023-03-19T17:18:41;91643.63;;;9.43;63.06
63493;BME280;49638;47.526;10.028;2023-03-19T17:21:42;91641.06;;;9.31;63.39
63493;BME280;49638;47.526;10.028;2023-03-19T17:24:43;91648.38;;;9.29;63.99
63493;BME280;49638;47.526;10.028;2023-03-19T17:27:44;91659.50;;;9.31;63.97
63493;BME280;49638;47.526;10.028;2023-03-19T17:30:45;91659.53;;;9.19;64.58
63493;BME280;49638;47.526;10.028;2023-03-19T17:33:45;91665.44;;;9.10;65.45
63493;BME280;49638;47.526;10.028;2023-03-19T17:36:51;91673.72;;;9.02;67.81
63493;BME280;49638;47.526;10.028;2023-03-19T17:39:51;91679.91;;;8.95;65.64
63493;BME280;49638;47.526;10.028;2023-03-19T17:42:53;91688.63;;;8.96;66.25